Prospect Creek, Prospect Cree, AK

12:17 AM AKDT on August 21, 2014 (GMT -0800)
Bettles | Change Station
CLOSE
Current Station
Airport
Location: Bettles,
Elevation: 643 ft
Nearby Weather Stations

Elev 643 ft 66.91 °N, 151.53 °W | Updated 24 minutes ago

Light Rain
Light Rain
52 °F
Feels Like 52 °F
N
5
Wind Variable Wind from SE

Today
High -- | Low -- °F
--% Chance of Precip.
Yesterday
High -- | Low -- °F
Precip. -- in
5:56 AM 10:12 PM
Waning Crescent, 16% visible
Pressure 30.11 in
Visibility 8.0 miles
Clouds Few 800 ft
Scattered Clouds 3200 ft
Overcast 6000 ft
Dew Point 50 °F
Humidity 93%
Rainfall 0.09 in
Snow Depth Not available.
UV 0 out of 12
Pollen Not available.
Air Quality Not available.
Flu Activity Not available.
METAR PABT 210753Z 13004KT 8SM -RA FEW008 SCT032 OVC060 11/10 A3008 RMK AO2 SLP195 P0001 T01110100

More Conditions Fewer Conditions

Pressure 30.11 in
Visibility 8.0 miles
Clouds Few 800 ft
Scattered Clouds 3200 ft
Overcast 6000 ft
Dew Point 50 °F
Humidity 93%
Rainfall 0.09 in
Snow Depth Not available.
UV 0 out of 12
Pollen Not available.
Air Quality Not available.
Flu Activity Not available.
METAR PABT 210753Z 13004KT 8SM -RA FEW008 SCT032 OVC060 11/10 A3008 RMK AO2 SLP195 P0001 T01110100

More Conditions Fewer Conditions

10-Day Weather Forecast

Almanac

Astronomy

Aug. 21, 2014 Rise Set
Actual Time 5:56 AM AKDT 10:12 PM AKDT
Civil Twilight 4:44 AM AKDT 11:22 PM AKDT
Nautical Twilight 2:38 AM AKDT 1:33 AM AKDT
Astronomical Twilight Sun does not rise Sun does not rise
Moon 1:43 AM AKDT 8:27 PM AKDT
Length of Visible Light 18h 37m
Length of Day
16h 15m
Tomorrow will be 7m 43s shorter.
Waning Crescent, 16% of the Moon is Illuminated
Today
Waning Crescent
Aug 25
New
Sep 2
First Quarter
Sep 8
Full
Sep 15
Last Quarter

Community

WunderPhotos

Upload Photos

1,745,867 photos uploaded!

Nearby

Snow Depth

Station Depth Elevation
Coldfoot 0 in 1040 ft
Fort Yukon 1 in 430 ft
Little Chena Ridge 1 in 2000 ft
Eagle Summit 1 in 3650 ft
Monument Creek 0 in 1850 ft

Earthquake Activity

City Distance Mag. Time & Date
No recent earthquake activity has been reported nearby.
Minimum magnitude displayed is 2.5.

Coastal Water Temperatures

Place Temperature
No Stations Reporting

Nearby Weather Stations